Time;durP1;ratioP1;P1;durP2;ratioP2;P2;SDS_P1;SDS_P2;PMS_P1;PMS_P2;Temp;Humidity;BMP_temperature;BMP_pressure;BME280_temperature;BME280_humidity;BME280_pressure;Samples;Min_cycle;Max_cycle;Signal;HPM_P1;HPM_P2
2022/09/06 00:00:58;;;;;;;1.13;0.90;;;16.60;99.90;;;;;;5015059;28;20506;-71
2022/09/06 00:03:26;;;;;;;1.27;1.20;;;16.60;99.90;;;;;;5015172;28;20490;-71
2022/09/06 00:05:52;;;;;;;0.70;0.70;;;16.60;99.90;;;;;;5015128;28;20209;-70
2022/09/06 00:08:18;;;;;;;0.93;0.93;;;16.20;99.90;;;;;;5014826;28;20453;-70
2022/09/06 00:10:43;;;;;;;0.63;0.63;;;16.40;99.90;;;;;;5013521;28;20225;-71
2022/09/06 00:13:12;;;;;;;0.80;0.80;;;16.30;99.90;;;;;;5014896;28;20225;-69
2022/09/06 00:15:38;;;;;;;0.90;0.90;;;16.20;99.90;;;;;;5014687;28;20210;-71
2022/09/06 00:18:06;;;;;;;0.93;0.93;;;16.30;99.90;;;;;;5014666;28;20809;-70
2022/09/06 00:20:32;;;;;;;1.27;1.27;;;;;;;;;;5014556;28;20406;-70
2022/09/06 00:22:59;;;;;;;1.03;1.00;;;16.30;99.90;;;;;;5014614;28;20746;-72
2022/09/06 00:25:26;;;;;;;1.33;1.23;;;16.60;99.90;;;;;;5014625;28;20406;-72
2022/09/06 00:27:59;;;;;;;2.20;2.00;;;16.30;99.90;;;;;;5014490;28;20488;-71
2022/09/06 00:30:26;;;;;;;0.87;0.87;;;16.80;99.90;;;;;;5014405;28;20415;-72
2022/09/06 00:32:52;;;;;;;1.03;1.03;;;16.70;99.90;;;;;;5014659;28;20497;-72
2022/09/06 00:35:19;;;;;;;0.87;0.87;;;16.70;99.90;;;;;;5014757;28;20494;-73
2022/09/06 00:37:45;;;;;;;0.80;0.80;;;16.90;99.90;;;;;;5013814;28;20841;-70
2022/09/06 00:40:12;;;;;;;0.60;0.60;;;16.60;99.90;;;;;;5014163;28;20409;-71
2022/09/06 00:42:38;;;;;;;1.03;1.03;;;16.50;99.90;;;;;;5014546;28;20628;-72
2022/09/06 00:45:06;;;;;;;1.90;1.10;;;16.60;99.90;;;;;;5014461;28;20420;-70
2022/09/06 00:47:35;;;;;;;2.30;1.03;;;16.60;99.90;;;;;;5014166;28;20434;-70
2022/09/06 00:50:02;;;;;;;1.27;1.23;;;16.50;99.90;;;;;;5014245;28;20982;-71
2022/09/06 00:52:29;;;;;;;1.20;1.10;;;16.90;99.90;;;;;;5012946;28;20422;-70
2022/09/06 00:54:56;;;;;;;0.90;0.90;;;;;;;;;;5012869;28;20480;-69
2022/09/06 00:57:25;;;;;;;1.70;1.10;;;16.60;99.90;;;;;;5014211;28;20427;-72
2022/09/06 00:59:53;;;;;;;0.70;0.70;;;16.60;99.90;;;;;;5013882;28;20957;-69
2022/09/06 01:02:19;;;;;;;1.03;0.87;;;16.60;99.90;;;;;;5014170;28;20442;-70
2022/09/06 02:13:47;;;;;;;1.13;1.03;;;16.60;99.90;;;;;;5017322;28;20389;-72
2022/09/06 02:16:19;;;;;;;1.30;1.20;;;16.80;99.90;;;;;;5015621;28;20468;-70
2022/09/06 02:19:07;;;;;;;0.90;0.90;;;16.90;99.90;;;;;;5017069;28;20391;-70
2022/09/06 02:21:37;;;;;;;1.57;1.57;;;17.00;99.90;;;;;;5016769;28;20501;-70
2022/09/06 02:24:07;;;;;;;0.60;0.60;;;16.70;99.90;;;;;;5017335;28;20489;-72
2022/09/06 02:26:38;;;;;;;1.20;1.10;;;17.00;99.90;;;;;;5017005;28;20433;-70
2022/09/06 02:29:04;;;;;;;2.00;1.37;;;16.80;99.90;;;;;;5016940;28;20399;-69
2022/09/06 02:31:48;;;;;;;1.13;1.13;;;16.90;99.90;;;;;;5015503;28;20919;-71
2022/09/06 02:34:16;;;;;;;0.90;0.90;;;16.80;99.90;;;;;;5016693;28;20792;-71
2022/09/06 02:36:43;;;;;;;0.60;0.60;;;16.80;99.90;;;;;;5016544;28;20470;-72
2022/09/06 02:39:09;;;;;;;1.50;1.50;;;16.80;99.90;;;;;;5016876;28;20543;-71
2022/09/06 02:41:35;;;;;;;0.70;0.70;;;16.70;99.90;;;;;;5015276;28;20402;-72
2022/09/06 02:44:01;;;;;;;1.17;0.87;;;16.80;99.90;;;;;;5016668;28;20779;-70
2022/09/06 02:46:27;;;;;;;0.73;0.73;;;;;;;;;;5016601;28;20422;-72
2022/09/06 02:48:53;;;;;;;0.97;0.60;;;;;;;;;;5016427;28;20398;-71
2022/09/06 02:51:19;;;;;;;0.73;0.73;;;16.60;99.90;;;;;;5016256;28;20437;-72
2022/09/06 02:53:46;;;;;;;2.30;1.63;;;;;;;;;;5016450;28;20434;-70
2022/09/06 02:56:12;;;;;;;1.00;1.00;;;;;;;;;;5016363;28;20454;-71
2022/09/06 02:58:38;;;;;;;0.40;0.40;;;16.70;99.90;;;;;;5016238;28;20409;-72
2022/09/06 03:01:04;;;;;;;0.87;0.87;;;16.80;99.90;;;;;;5015517;28;20406;-71
2022/09/06 03:03:30;;;;;;;1.00;0.83;;;16.70;99.90;;;;;;5016183;28;20413;-71
2022/09/06 03:05:56;;;;;;;0.57;0.50;;;16.70;99.90;;;;;;5016198;28;20222;-72
2022/09/06 03:08:25;;;;;;;1.37;1.27;;;16.80;99.90;;;;;;5015994;28;20211;-72
2022/09/06 03:10:55;;;;;;;0.70;0.70;;;16.90;99.90;;;;;;5015816;28;20655;-70
2022/09/06 03:13:22;;;;;;;0.67;0.67;;;16.90;99.90;;;;;;5016109;28;20403;-70
2022/09/06 03:15:59;;;;;;;1.43;1.33;;;16.90;99.90;;;;;;5015685;28;20820;-72
2022/09/06 03:18:26;;;;;;;1.10;1.00;;;17.10;99.90;;;;;;5015790;28;20458;-71
2022/09/06 03:20:53;;;;;;;1.53;1.23;;;16.70;99.90;;;;;;5015765;28;20731;-70
2022/09/06 03:23:20;;;;;;;1.23;1.23;;;16.80;99.90;;;;;;5015929;28;20489;-70
2022/09/06 03:25:46;;;;;;;0.40;0.40;;;16.70;99.90;;;;;;5015910;28;20432;-70
2022/09/06 03:28:11;;;;;;;0.70;0.70;;;16.70;99.90;;;;;;5015783;28;20517;-72
2022/09/06 03:30:38;;;;;;;2.00;1.90;;;16.80;99.90;;;;;;5015617;28;20254;-70
2022/09/06 03:33:04;;;;;;;0.80;0.80;;;16.90;99.90;;;;;;5015543;28;20668;-71
2022/09/06 03:35:30;;;;;;;1.00;1.00;;;16.90;99.90;;;;;;5015582;28;20458;-71
2022/09/06 03:37:55;;;;;;;0.40;0.40;;;16.80;99.90;;;;;;5015450;28;20191;-71
2022/09/06 03:40:21;;;;;;;0.50;0.50;;;17.10;99.90;;;;;;5015473;28;20773;-72
2022/09/06 03:42:47;;;;;;;0.50;0.43;;;16.90;99.90;;;;;;5015426;28;20167;-71
2022/09/06 03:45:12;;;;;;;0.87;0.63;;;16.90;99.90;;;;;;5015377;28;20226;-70
2022/09/06 03:47:38;;;;;;;1.20;1.17;;;16.90;99.90;;;;;;5013984;28;20203;-72
2022/09/06 03:50:05;;;;;;;1.73;1.27;;;17.00;99.90;;;;;;5015142;28;20254;-71
2022/09/06 03:52:30;;;;;;;2.33;2.23;;;16.20;99.90;;;;;;5015236;28;20215;-72
2022/09/06 03:54:56;;;;;;;0.70;0.70;;;16.80;99.90;;;;;;5015268;28;20519;-70
2022/09/06 03:57:22;;;;;;;2.40;1.23;;;16.90;99.90;;;;;;5015152;28;20194;-72
2022/09/06 03:59:48;;;;;;;1.23;1.13;;;16.70;99.90;;;;;;5015330;28;20200;-72
2022/09/06 04:02:13;;;;;;;0.80;0.80;;;16.90;99.90;;;;;;5015394;28;20159;-70
2022/09/06 04:04:39;;;;;;;1.80;1.70;;;16.90;99.90;;;;;;5015332;28;20293;-70
2022/09/06 04:07:05;;;;;;;1.90;0.60;;;17.00;99.90;;;;;;5014950;28;20234;-70
2022/09/06 04:09:31;;;;;;;1.03;1.00;;;;;;;;;;5015093;28;20706;-73
2022/09/06 04:11:56;;;;;;;2.70;1.33;;;17.00;99.90;;;;;;5013035;28;20206;-70
2022/09/06 04:14:22;;;;;;;0.50;0.50;;;17.00;99.90;;;;;;5014712;28;20450;-72
2022/09/06 04:16:48;;;;;;;1.30;1.00;;;;;;;;;;5014894;28;20217;-71
2022/09/06 04:19:14;;;;;;;0.63;0.50;;;17.10;99.90;;;;;;5014718;28;20230;-70
2022/09/06 04:21:40;;;;;;;0.50;0.50;;;16.90;99.90;;;;;;5014723;28;20403;-72
2022/09/06 04:24:06;;;;;;;0.63;0.63;;;;;;;;;;5014908;28;20591;-72
2022/09/06 04:26:32;;;;;;;0.90;0.53;;;16.90;99.90;;;;;;5014699;28;20188;-71
2022/09/06 04:28:57;;;;;;;0.93;0.93;;;16.80;99.90;;;;;;5014521;28;20414;-72
2022/09/06 04:31:23;;;;;;;0.90;0.90;;;;;;;;;;5014486;28;20997;-70
2022/09/06 04:33:49;;;;;;;1.57;0.50;;;17.00;99.90;;;;;;5014686;28;20217;-71
2022/09/06 04:36:15;;;;;;;0.40;0.40;;;;;;;;;;5014412;28;20547;-72
2022/09/06 04:38:42;;;;;;;0.67;0.60;;;17.00;99.90;;;;;;5014411;28;20658;-72
2022/09/06 04:41:10;;;;;;;1.03;1.03;;;16.90;99.90;;;;;;5014183;28;20409;-70
2022/09/06 04:43:35;;;;;;;0.97;0.97;;;16.90;99.90;;;;;;5014346;28;20402;-69
2022/09/06 04:46:08;;;;;;;0.80;0.70;;;16.80;99.90;;;;;;5014365;28;20410;-70
2022/09/06 04:48:34;;;;;;;0.50;0.50;;;16.80;99.90;;;;;;5014420;28;20683;-69
2022/09/06 04:51:00;;;;;;;0.60;0.60;;;;;;;;;;5014123;28;20403;-72
2022/09/06 04:53:25;;;;;;;0.93;0.67;;;16.80;99.90;;;;;;5014346;28;20406;-72
2022/09/06 04:55:51;;;;;;;0.70;0.70;;;16.80;99.90;;;;;;5014083;28;20477;-72
2022/09/06 04:58:16;;;;;;;1.87;1.77;;;16.80;99.90;;;;;;5014067;28;20202;-69
2022/09/06 05:00:43;;;;;;;1.03;1.00;;;16.90;99.90;;;;;;5014026;28;20207;-69
2022/09/06 05:03:09;;;;;;;2.10;0.90;;;16.80;99.90;;;;;;5014154;28;20499;-71
2022/09/06 05:05:34;;;;;;;0.40;0.40;;;16.90;99.90;;;;;;5014017;28;20414;-70
2022/09/06 05:08:00;;;;;;;1.33;1.17;;;16.90;99.90;;;;;;5014122;28;20226;-70
2022/09/06 05:10:26;;;;;;;0.70;0.70;;;;;;;;;;5013916;28;20180;-71
2022/09/06 05:12:53;;;;;;;1.33;1.23;;;17.00;99.90;;;;;;5013987;28;20403;-71
2022/09/06 05:15:21;;;;;;;0.50;0.50;;;17.00;99.90;;;;;;5013907;28;20465;-70
2022/09/06 05:17:46;;;;;;;14.73;1.50;;;17.10;99.90;;;;;;5013768;28;20795;-71
2022/09/06 05:20:12;;;;;;;0.70;0.70;;;17.20;99.90;;;;;;5013733;28;20399;-70
2022/09/06 05:22:39;;;;;;;0.70;0.70;;;16.90;99.90;;;;;;5013747;28;20182;-72
2022/09/06 05:25:06;;;;;;;0.47;0.47;;;17.10;99.90;;;;;;5013784;28;20402;-70
2022/09/06 05:27:31;;;;;;;0.90;0.87;;;17.20;99.90;;;;;;5013846;28;20458;-70
2022/09/06 05:29:57;;;;;;;1.23;0.80;;;17.20;99.90;;;;;;5013719;28;20442;-69
2022/09/06 05:32:23;;;;;;;0.50;0.50;;;;;;;;;;5013940;28;20172;-70
2022/09/06 05:34:48;;;;;;;0.67;0.67;;;17.10;99.90;;;;;;5012561;28;20238;-72
2022/09/06 05:37:14;;;;;;;0.90;0.90;;;;;;;;;;5013707;28;20430;-71
2022/09/06 05:39:40;;;;;;;0.93;0.83;;;;;;;;;;5013894;28;20559;-72
2022/09/06 05:42:06;;;;;;;2.10;1.17;;;17.30;99.90;;;;;;5013771;28;20402;-70
2022/09/06 05:44:36;;;;;;;2.40;1.37;;;17.30;99.90;;;;;;5013685;28;20406;-72
2022/09/06 05:47:02;;;;;;;0.50;0.50;;;17.30;99.90;;;;;;5013660;28;20562;-72
2022/09/06 05:49:29;;;;;;;1.10;1.00;;;17.30;99.90;;;;;;5013555;28;20429;-72
2022/09/06 05:51:54;;;;;;;1.03;0.80;;;17.50;99.90;;;;;;5013498;28;20407;-72
2022/09/06 05:54:20;;;;;;;1.00;0.50;;;17.40;99.90;;;;;;5013528;28;20827;-71
2022/09/06 05:56:46;;;;;;;1.60;0.80;;;17.50;99.90;;;;;;5013388;28;20222;-72
2022/09/06 05:59:11;;;;;;;0.50;0.50;;;17.60;99.90;;;;;;5013607;28;20254;-71
2022/09/06 06:01:55;;;;;;;0.77;0.70;;;17.70;99.90;;;;;;5013474;28;20198;-72
2022/09/06 06:04:21;;;;;;;0.40;0.40;;;17.80;99.90;;;;;;5013602;28;20227;-70
2022/09/06 06:06:50;;;;;;;0.50;0.50;;;18.10;99.90;;;;;;5013466;28;20437;-72
2022/09/06 06:09:16;;;;;;;1.40;1.30;;;18.00;99.90;;;;;;5013573;28;20421;-70
2022/09/06 06:11:42;;;;;;;1.30;1.30;;;18.10;99.90;;;;;;5013317;28;20765;-70
2022/09/06 06:14:08;;;;;;;3.63;1.60;;;18.40;99.90;;;;;;5013389;28;20185;-71
2022/09/06 06:16:34;;;;;;;2.83;1.60;;;18.90;99.90;;;;;;5013434;28;20831;-70
2022/09/06 06:19:00;;;;;;;0.87;0.80;;;;;;;;;;5013210;28;20799;-71
2022/09/06 06:21:28;;;;;;;1.53;1.37;;;19.50;99.90;;;;;;5013109;28;20398;-72
2022/09/06 06:23:59;;;;;;;2.90;1.03;;;19.30;99.90;;;;;;5013260;28;20405;-71
2022/09/06 06:26:26;;;;;;;0.57;0.57;;;19.10;99.90;;;;;;5013504;28;20403;-71
2022/09/06 06:28:52;;;;;;;1.10;1.10;;;;;;;;;;5013176;28;20414;-70
2022/09/06 06:31:21;;;;;;;1.00;0.80;;;19.90;99.90;;;;;;5012921;28;20538;-71
2022/09/06 06:33:47;;;;;;;0.80;0.80;;;;;;;;;;5013154;28;20426;-71
2022/09/06 06:36:12;;;;;;;0.83;0.83;;;20.70;99.90;;;;;;5015531;28;20454;-69
2022/09/06 06:38:40;;;;;;;0.60;0.60;;;20.50;99.90;;;;;;5016644;28;20418;-70
2022/09/06 06:41:07;;;;;;;0.83;0.83;;;20.60;99.90;;;;;;5016563;28;20172;-70
2022/09/06 06:43:36;;;;;;;0.87;0.87;;;20.50;99.90;;;;;;5016722;28;20406;-71
2022/09/06 06:46:23;;;;;;;1.33;1.23;;;20.50;99.90;;;;;;5016645;28;20457;-70
2022/09/06 06:48:50;;;;;;;0.53;0.53;;;20.30;99.90;;;;;;5016691;28;20427;-72
2022/09/06 06:51:17;;;;;;;1.20;1.17;;;20.40;99.90;;;;;;5016361;28;20421;-70
2022/09/06 06:53:46;;;;;;;0.70;0.70;;;20.30;99.90;;;;;;5016495;28;20413;-71
2022/09/06 06:56:28;;;;;;;0.60;0.60;;;20.30;99.90;;;;;;5015096;28;20454;-70
2022/09/06 06:58:58;;;;;;;6.40;2.10;;;20.30;99.90;;;;;;5016355;28;20517;-72
2022/09/06 07:01:26;;;;;;;1.23;1.23;;;20.30;99.90;;;;;;5016171;28;20411;-70
2022/09/06 07:03:53;;;;;;;0.87;0.70;;;;;;;;;;5016276;28;20411;-73
2022/09/06 07:06:20;;;;;;;0.37;0.37;;;20.00;99.90;;;;;;5016231;28;20398;-70
2022/09/06 07:08:46;;;;;;;0.50;0.50;;;19.80;99.90;;;;;;5016063;28;20416;-70
2022/09/06 07:11:13;;;;;;;1.07;0.80;;;20.20;99.90;;;;;;5015851;28;20416;-71
2022/09/06 07:13:39;;;;;;;0.90;0.90;;;20.20;99.90;;;;;;5014739;28;20414;-72
2022/09/06 07:16:10;;;;;;;0.40;0.40;;;20.40;99.90;;;;;;5015860;28;20462;-70
2022/09/06 07:18:40;;;;;;;0.77;0.77;;;20.60;99.90;;;;;;5016111;28;20818;-71
2022/09/06 07:21:11;;;;;;;1.17;0.60;;;20.90;99.90;;;;;;5015653;28;20407;-71
2022/09/06 07:23:37;;;;;;;0.40;0.40;;;22.00;99.90;;;;;;5014624;28;20406;-71
2022/09/06 07:26:03;;;;;;;1.27;1.17;;;22.20;99.90;;;;;;5014487;28;20414;-73
2022/09/06 07:28:28;;;;;;;0.90;0.90;;;23.10;99.90;;;;;;5015633;28;20440;-71
2022/09/06 07:30:54;;;;;;;0.50;0.50;;;23.20;99.90;;;;;;5015849;28;20652;-73
2022/09/06 07:33:20;;;;;;;0.40;0.40;;;;;;;;;;5014495;28;20230;-71
2022/09/06 07:36:01;;;;;;;0.40;0.40;;;23.50;99.90;;;;;;5015642;28;20435;-73
2022/09/06 07:38:28;;;;;;;0.53;0.53;;;23.90;99.90;;;;;;5015479;28;20430;-72
2022/09/06 07:40:56;;;;;;;0.50;0.50;;;23.50;99.90;;;;;;5014057;28;20904;-73
2022/09/06 07:43:22;;;;;;;0.50;0.50;;;23.70;97.20;;;;;;5015498;28;20489;-72
2022/09/06 07:45:48;;;;;;;0.57;0.57;;;;;;;;;;5015314;28;20457;-72
2022/09/06 07:48:14;;;;;;;7.23;1.03;;;23.50;96.90;;;;;;5015251;28;20652;-71
2022/09/06 07:50:39;;;;;;;1.90;0.73;;;23.50;99.90;;;;;;5015015;28;20446;-70
2022/09/06 07:53:09;;;;;;;0.63;0.63;;;23.10;97.30;;;;;;5015278;28;20217;-70
2022/09/06 07:55:35;;;;;;;0.50;0.50;;;;;;;;;;5015161;28;20206;-72
2022/09/06 07:58:00;;;;;;;0.83;0.50;;;23.10;99.90;;;;;;5015279;28;20438;-72
2022/09/06 08:00:26;;;;;;;0.87;0.87;;;23.10;99.90;;;;;;5014946;28;20433;-71
2022/09/06 08:02:52;;;;;;;0.40;0.40;;;;;;;;;;5015258;28;20194;-70
2022/09/06 08:05:18;;;;;;;0.40;0.40;;;22.70;96.80;;;;;;5015409;28;20177;-72
2022/09/06 08:07:43;;;;;;;0.50;0.50;;;22.60;97.50;;;;;;5014901;28;20456;-71
2022/09/06 08:10:09;;;;;;;1.53;0.70;;;22.60;97.90;;;;;;5014778;28;20596;-73
2022/09/06 08:12:35;;;;;;;0.80;0.80;;;;;;;;;;5015018;28;20177;-70
2022/09/06 08:15:01;;;;;;;0.40;0.40;;;22.30;97.70;;;;;;5014670;28;20571;-72
2022/09/06 08:17:26;;;;;;;1.03;0.73;;;22.10;98.30;;;;;;5014685;28;20443;-70
2022/09/06 08:19:52;;;;;;;0.70;0.70;;;22.00;98.90;;;;;;5014755;28;20427;-71
2022/09/06 08:22:18;;;;;;;0.83;0.83;;;21.90;99.30;;;;;;5014954;28;20253;-70
2022/09/06 08:24:43;;;;;;;0.70;0.70;;;21.80;99.80;;;;;;5014882;28;20589;-72
2022/09/06 08:27:10;;;;;;;0.40;0.40;;;21.70;99.70;;;;;;5014672;28;20220;-70
2022/09/06 08:29:36;;;;;;;1.37;0.87;;;;;;;;;;5014411;28;20235;-70
2022/09/06 08:32:02;;;;;;;0.43;0.43;;;21.70;99.70;;;;;;5014734;28;20516;-70
2022/09/06 08:34:28;;;;;;;0.40;0.40;;;;;;;;;;5014449;28;20995;-71
2022/09/06 08:36:53;;;;;;;1.47;0.80;;;21.50;99.90;;;;;;5014495;28;20472;-71
2022/09/06 08:39:19;;;;;;;1.10;1.10;;;20.80;99.90;;;;;;5014456;28;20407;-71
2022/09/06 08:41:50;;;;;;;1.53;0.70;;;21.10;99.90;;;;;;5014323;28;20173;-71
2022/09/06 08:44:32;;;;;;;0.83;0.83;;;21.10;99.90;;;;;;5014541;28;20631;-70
2022/09/06 08:47:09;;;;;;;0.40;0.40;;;21.00;99.90;;;;;;5014898;28;20527;-70
2022/09/06 08:49:40;;;;;;;1.00;1.00;;;21.20;99.90;;;;;;5013458;28;20747;-72
2022/09/06 08:52:26;;;;;;;0.53;0.53;;;21.20;99.90;;;;;;5014456;28;20502;-72
2022/09/06 08:55:26;;;;;;;2.10;1.00;;;21.10;99.90;;;;;;5014296;28;20905;-71
2022/09/06 08:57:58;;;;;;;4.43;1.63;;;21.70;99.90;;;;;;5013661;28;20432;-71
2022/09/06 09:00:24;;;;;;;0.60;0.60;;;21.40;99.90;;;;;;5013925;28;20799;-73
2022/09/06 09:03:06;;;;;;;0.80;0.80;;;21.40;99.90;;;;;;5014209;28;20417;-72
2022/09/06 09:05:37;;;;;;;0.97;0.97;;;21.20;99.90;;;;;;5014201;28;20744;-70
2022/09/06 09:08:17;;;;;;;0.40;0.40;;;21.20;99.90;;;;;;5013899;28;20433;-71
2022/09/06 09:10:49;;;;;;;0.80;0.80;;;21.10;99.90;;;;;;5013893;28;20863;-71
2022/09/06 09:13:40;;;;;;;1.37;0.87;;;20.80;99.90;;;;;;5014034;28;20414;-71
2022/09/06 09:16:06;;;;;;;10.60;1.17;;;21.00;99.90;;;;;;5013647;28;20465;-73
2022/09/06 09:18:35;;;;;;;0.63;0.53;;;21.10;99.90;;;;;;5013778;28;20798;-71
2022/09/06 09:21:01;;;;;;;0.50;0.50;;;20.70;99.90;;;;;;5013817;28;20434;-71
2022/09/06 09:23:29;;;;;;;0.90;0.90;;;20.70;99.90;;;;;;5013835;28;20884;-72
2022/09/06 09:26:01;;;;;;;1.30;1.20;;;20.60;99.90;;;;;;5012643;28;20771;-71
2022/09/06 09:28:27;;;;;;;0.80;0.80;;;20.50;99.90;;;;;;5013629;28;20435;-72
2022/09/06 09:30:55;;;;;;;1.10;0.80;;;20.90;99.90;;;;;;5013506;28;20403;-71
2022/09/06 09:33:34;;;;;;;0.50;0.50;;;20.80;99.90;;;;;;5013676;28;20407;-70
2022/09/06 09:36:10;;;;;;;0.50;0.50;;;20.50;99.90;;;;;;5013993;28;20825;-73
2022/09/06 09:38:50;;;;;;;0.60;0.60;;;20.80;99.90;;;;;;5013312;28;20439;-72
2022/09/06 09:41:32;;;;;;;0.93;0.83;;;20.80;99.90;;;;;;5013254;28;20413;-72
2022/09/06 09:44:00;;;;;;;2.73;0.87;;;20.80;99.90;;;;;;5013492;28;20404;-72
2022/09/06 09:46:26;;;;;;;7.93;1.50;;;;;;;;;;5013693;28;20415;-70
2022/09/06 09:48:59;;;;;;;1.90;0.50;;;20.70;99.90;;;;;;5013503;28;20545;-72
2022/09/06 09:51:25;;;;;;;1.23;0.97;;;20.70;99.90;;;;;;5013336;28;20791;-70
2022/09/06 09:53:51;;;;;;;0.87;0.87;;;;;;;;;;5013416;28;20419;-72
2022/09/06 09:56:26;;;;;;;0.40;0.30;;;21.00;99.90;;;;;;5012039;28;20468;-73
2022/09/06 09:58:54;;;;;;;0.70;0.70;;;20.90;99.90;;;;;;5013647;28;20512;-73
2022/09/06 10:01:29;;;;;;;0.60;0.60;;;21.10;99.90;;;;;;5012198;28;20749;-70
2022/09/06 10:04:11;;;;;;;0.43;0.43;;;21.00;99.90;;;;;;5013604;28;20416;-70
2022/09/06 10:06:37;;;;;;;0.73;0.73;;;21.10;99.90;;;;;;5013334;28;20441;-72
2022/09/06 10:09:28;;;;;;;1.60;1.27;;;21.10;99.90;;;;;;5013395;28;20468;-70
2022/09/06 10:11:56;;;;;;;0.40;0.40;;;21.00;99.90;;;;;;5017164;28;20406;-71
2022/09/06 10:14:40;;;;;;;0.93;0.93;;;21.70;99.90;;;;;;5017119;28;20439;-70
2022/09/06 10:17:06;;;;;;;1.17;1.17;;;21.50;99.90;;;;;;5017196;28;20442;-71
2022/09/06 10:19:41;;;;;;;0.83;0.73;;;21.50;99.90;;;;;;5017088;28;20483;-70
2022/09/06 10:22:29;;;;;;;0.70;0.70;;;21.50;99.90;;;;;;5017238;28;20168;-72
2022/09/06 10:25:14;;;;;;;0.73;0.73;;;21.80;99.90;;;;;;5016878;28;20396;-71
2022/09/06 10:27:52;;;;;;;0.83;0.80;;;21.70;99.90;;;;;;5016797;28;20429;-74
2022/09/06 10:30:18;;;;;;;1.23;1.13;;;21.70;99.90;;;;;;5016800;28;20452;-71
2022/09/06 10:32:53;;;;;;;0.90;0.90;;;21.80;99.90;;;;;;5017377;28;20414;-71
2022/09/06 10:35:24;;;;;;;0.50;0.50;;;21.80;99.90;;;;;;5016652;28;20453;-72
2022/09/06 10:38:01;;;;;;;0.70;0.70;;;22.20;99.90;;;;;;5016623;28;20433;-71
2022/09/06 10:40:30;;;;;;;0.60;0.50;;;22.20;99.90;;;;;;5016451;28;20440;-71
2022/09/06 10:42:58;;;;;;;1.00;0.90;;;23.40;99.90;;;;;;5016708;28;20410;-72
2022/09/06 10:45:55;;;;;;;1.13;0.60;;;22.70;99.90;;;;;;5016431;28;20506;-71
2022/09/06 10:48:39;;;;;;;0.60;0.60;;;23.00;99.90;;;;;;5016439;28;20461;-71
2022/09/06 10:51:48;;;;;;;0.70;0.40;;;23.10;99.90;;;;;;5016475;28;20394;-73
2022/09/06 10:54:19;;;;;;;1.13;0.83;;;23.20;99.90;;;;;;5016650;28;20464;-72
2022/09/06 10:56:57;;;;;;;0.57;0.57;;;23.20;99.90;;;;;;5016421;28;20472;-73
2022/09/06 10:59:34;;;;;;;0.60;0.60;;;23.10;99.90;;;;;;5016724;28;20715;-72
2022/09/06 11:02:27;;;;;;;1.07;0.70;;;23.20;99.90;;;;;;5016384;28;20405;-72
2022/09/06 11:04:59;;;;;;;0.60;0.60;;;23.50;99.90;;;;;;5016558;28;20406;-72
2022/09/06 11:08:00;;;;;;;0.40;0.40;;;23.40;99.90;;;;;;5016236;28;20404;-70
2022/09/06 11:10:48;;;;;;;0.67;0.60;;;23.40;99.90;;;;;;4974455;28;20418;-71
2022/09/06 11:13:26;;;;;;;0.90;0.80;;;23.50;99.90;;;;;;5016438;28;20394;-72
2022/09/06 11:16:06;;;;;;;0.40;0.40;;;24.00;99.90;;;;;;5015775;28;20458;-71
2022/09/06 11:18:50;;;;;;;0.40;0.40;;;24.00;99.90;;;;;;5016144;28;20495;-71
2022/09/06 11:21:37;;;;;;;1.80;0.57;;;24.10;99.90;;;;;;5015500;28;20899;-73
2022/09/06 11:24:05;;;;;;;0.80;0.80;;;24.20;99.90;;;;;;5015900;28;20395;-71
2022/09/06 11:26:45;;;;;;;0.80;0.80;;;24.20;99.90;;;;;;5015904;28;20405;-72
2022/09/06 11:29:21;;;;;;;0.40;0.40;;;24.30;99.90;;;;;;5015655;28;20394;-72
2022/09/06 11:32:01;;;;;;;1.20;1.07;;;23.70;99.90;;;;;;5015442;28;20437;-72
2022/09/06 11:34:36;;;;;;;0.40;0.40;;;24.00;99.90;;;;;;5015877;28;20447;-71
2022/09/06 11:37:24;;;;;;;0.50;0.50;;;23.90;99.90;;;;;;5015498;28;20503;-71
2022/09/06 11:40:05;;;;;;;0.60;0.50;;;23.50;99.90;;;;;;5015321;28;20730;-71
2022/09/06 11:43:00;;;;;;;0.50;0.50;;;23.10;99.90;;;;;;5016060;28;20431;-71
2022/09/06 11:45:50;;;;;;;0.87;0.87;;;23.00;99.90;;;;;;5015435;28;20776;-72
2022/09/06 11:48:32;;;;;;;0.50;0.50;;;22.50;99.90;;;;;;5015549;28;20422;-73
2022/09/06 11:50:58;;;;;;;1.00;0.60;;;22.10;99.90;;;;;;5015331;28;20382;-72
2022/09/06 11:53:25;;;;;;;0.70;0.70;;;21.80;99.90;;;;;;5015355;28;20957;-72
2022/09/06 11:55:59;;;;;;;0.73;0.73;;;21.60;99.90;;;;;;5015380;28;20195;-70
2022/09/06 11:58:35;;;;;;;0.77;0.70;;;21.40;99.90;;;;;;5015103;28;20427;-71
2022/09/06 12:01:27;;;;;;;0.40;0.40;;;21.60;99.90;;;;;;5015029;28;20400;-71
2022/09/06 12:03:54;;;;;;;0.40;0.40;;;21.10;99.90;;;;;;5011438;28;20421;-70
2022/09/06 12:06:21;;;;;;;0.40;0.40;;;21.00;99.90;;;;;;5015108;28;20409;-72
2022/09/06 12:08:51;;;;;;;0.50;0.50;;;20.90;99.90;;;;;;5014937;28;20403;-72
2022/09/06 12:11:36;;;;;;;0.40;0.40;;;21.00;99.90;;;;;;5014789;28;20412;-71
2022/09/06 12:14:04;;;;;;;0.57;0.50;;;20.70;99.90;;;;;;5015102;28;20429;-72
2022/09/06 12:16:58;;;;;;;5.80;0.80;;;20.70;99.90;;;;;;5014958;28;20462;-71
2022/09/06 12:19:42;;;;;;;0.73;0.73;;;20.90;99.90;;;;;;5014767;28;20881;-72
2022/09/06 12:22:32;;;;;;;0.73;0.50;;;20.60;99.90;;;;;;5014978;28;20407;-71
2022/09/06 12:25:06;;;;;;;2.10;0.50;;;20.80;99.90;;;;;;5014867;28;20394;-72
2022/09/06 12:27:58;;;;;;;0.40;0.40;;;20.40;99.90;;;;;;5014617;28;20514;-71
2022/09/06 12:30:42;;;;;;;0.90;0.90;;;20.40;99.90;;;;;;5014714;28;20398;-71
2022/09/06 12:33:30;;;;;;;1.00;0.67;;;20.30;99.90;;;;;;5013966;28;20883;-72
2022/09/06 12:36:22;;;;;;;0.70;0.70;;;20.20;99.90;;;;;;5014611;28;20524;-71
2022/09/06 12:38:59;;;;;;;0.63;0.63;;;20.20;99.90;;;;;;5014607;28;20762;-70
2022/09/06 12:41:31;;;;;;;0.40;0.40;;;20.40;99.90;;;;;;5014377;28;20745;-70
2022/09/06 12:44:03;;;;;;;0.57;0.57;;;20.70;99.90;;;;;;5014566;28;20410;-70
2022/09/06 12:46:30;;;;;;;0.50;0.50;;;20.70;99.90;;;;;;5014463;28;20433;-71
2022/09/06 12:49:16;;;;;;;1.43;0.97;;;20.10;99.90;;;;;;5014269;28;20425;-70
2022/09/06 12:51:42;;;;;;;0.60;0.60;;;20.80;99.90;;;;;;5014191;28;20806;-71
2022/09/06 12:54:27;;;;;;;0.50;0.50;;;20.90;99.90;;;;;;5013087;28;20457;-71
2022/09/06 12:57:12;;;;;;;1.07;0.97;;;21.40;99.90;;;;;;5014221;28;20500;-71
2022/09/06 12:59:45;;;;;;;1.80;1.70;;;21.50;99.90;;;;;;5014182;28;20408;-72
2022/09/06 13:02:16;;;;;;;0.60;0.60;;;21.40;99.90;;;;;;5014493;28;20889;-72
2022/09/06 13:04:55;;;;;;;0.83;0.83;;;21.60;99.90;;;;;;5014284;28;20440;-72
2022/09/06 13:07:23;;;;;;;1.00;1.00;;;22.00;99.90;;;;;;5014018;28;20439;-72
2022/09/06 13:09:52;;;;;;;0.50;0.50;;;21.60;99.90;;;;;;5012554;28;20526;-70
2022/09/06 13:12:32;;;;;;;0.70;0.70;;;21.60;99.90;;;;;;5012708;28;20897;-71
2022/09/06 13:15:05;;;;;;;0.80;0.80;;;21.70;99.90;;;;;;5013827;28;20505;-72
2022/09/06 13:17:30;;;;;;;0.60;0.60;;;22.00;99.90;;;;;;5013786;28;20427;-72
2022/09/06 13:20:01;;;;;;;0.50;0.50;;;22.00;99.90;;;;;;5013899;28;20393;-72
2022/09/06 13:22:37;;;;;;;1.33;0.80;;;22.00;99.90;;;;;;5013889;28;20177;-72
2022/09/06 13:25:04;;;;;;;0.53;0.53;;;22.20;99.90;;;;;;5013883;28;20412;-71
2022/09/06 13:27:30;;;;;;;1.03;0.63;;;;;;;;;;5013755;28;20453;-70
2022/09/06 13:29:59;;;;;;;0.70;0.70;;;22.80;99.90;;;;;;5012869;28;20825;-72
2022/09/06 13:32:26;;;;;;;0.60;0.60;;;22.60;99.90;;;;;;5014396;28;20909;-73
2022/09/06 13:34:55;;;;;;;0.73;0.73;;;;;;;;;;5013669;28;20895;-72
2022/09/06 13:37:24;;;;;;;0.73;0.73;;;22.90;99.90;;;;;;5013843;28;20509;-72
2022/09/06 13:39:50;;;;;;;0.73;0.73;;;22.80;99.90;;;;;;5013401;28;20849;-71
2022/09/06 13:42:36;;;;;;;0.40;0.40;;;22.90;99.20;;;;;;5013709;28;20761;-72
2022/09/06 13:45:29;;;;;;;0.63;0.63;;;22.60;99.90;;;;;;5016458;28;20417;-71
2022/09/06 13:47:55;;;;;;;0.43;0.43;;;22.80;99.90;;;;;;5017756;28;20931;-73
2022/09/06 13:50:26;;;;;;;1.73;0.97;;;22.70;99.90;;;;;;5017566;28;20903;-71
2022/09/06 13:52:52;;;;;;;0.40;0.30;;;23.00;99.90;;;;;;5017757;28;20391;-71
2022/09/06 13:55:20;;;;;;;0.50;0.50;;;23.00;99.90;;;;;;5017607;28;20457;-71
2022/09/06 13:57:46;;;;;;;0.50;0.50;;;23.00;99.90;;;;;;5017356;28;20199;-73
2022/09/06 14:00:12;;;;;;;0.40;0.40;;;23.20;99.90;;;;;;5017267;28;20373;-73
2022/09/06 14:02:41;;;;;;;0.77;0.60;;;23.20;99.90;;;;;;5017468;28;20168;-72
2022/09/06 14:05:07;;;;;;;0.80;0.47;;;23.20;99.90;;;;;;5017458;28;20409;-72
2022/09/06 14:07:33;;;;;;;1.57;0.93;;;;;;;;;;5017382;28;20505;-72
2022/09/06 14:10:00;;;;;;;0.40;0.40;;;23.30;99.90;;;;;;5017052;28;20434;-73
2022/09/06 14:12:26;;;;;;;0.60;0.60;;;;;;;;;;5017218;28;20384;-71
2022/09/06 14:14:52;;;;;;;0.63;0.63;;;23.60;99.90;;;;;;5016885;28;20816;-71
2022/09/06 14:17:18;;;;;;;0.40;0.40;;;23.00;99.90;;;;;;5017128;28;20404;-73
2022/09/06 14:19:44;;;;;;;1.23;0.70;;;23.10;99.90;;;;;;5016859;28;20377;-71
2022/09/06 14:22:11;;;;;;;0.60;0.60;;;;;;;;;;5017120;28;20399;-73
2022/09/06 14:24:36;;;;;;;0.60;0.60;;;23.00;99.90;;;;;;5017128;28;20399;-73